Terminal Aerodrome Forecast
Issued by NWS Medford, OR

Home | Current Version | Previous Version | Text Only | Print | Product List | Glossary On
Versions: 1 2 3 4 5 6 7 8 9 10 11 12 13 14 15 16 17 18 19 20 21 22
000
FTUS46 KMFR 261736
TAFMFR
TAF
KMFR 261736Z 2618/2718 VRB02KT 3SM BR OVC004
     FM262200 VRB03KT P6SM SCT008 BKN150
     FM270700 VRB03KT 1SM BR VCFG OVC003=

USA.gov is the U.S. government's official web portal to all federal, state and local government web resources and services.